sensor_id;sensor_type;location;lat;lon;timestamp;P1;durP1;ratioP1;P2;durP2;ratioP2
55364;SDS011;41245;45.384;20.390;2023-06-05T00:00:07;6.38;;;4.65;;
55364;SDS011;41245;45.384;20.390;2023-06-05T00:02:34;5.65;;;4.15;;
55364;SDS011;41245;45.384;20.390;2023-06-05T00:05:00;8.80;;;3.53;;
55364;SDS011;41245;45.384;20.390;2023-06-05T00:07:26;5.82;;;3.78;;
55364;SDS011;41245;45.384;20.390;2023-06-05T00:09:52;6.03;;;4.47;;
55364;SDS011;41245;45.384;20.390;2023-06-05T00:12:18;5.60;;;3.33;;
55364;SDS011;41245;45.384;20.390;2023-06-05T00:14:43;21.95;;;4.60;;
55364;SDS011;41245;45.384;20.390;2023-06-05T00:17:10;15.20;;;3.97;;
55364;SDS011;41245;45.384;20.390;2023-06-05T00:19:35;8.32;;;3.78;;
55364;SDS011;41245;45.384;20.390;2023-06-05T00:22:01;6.95;;;3.42;;
55364;SDS011;41245;45.384;20.390;2023-06-05T00:24:27;9.18;;;4.85;;
55364;SDS011;41245;45.384;20.390;2023-06-05T00:26:53;5.82;;;4.05;;
55364;SDS011;41245;45.384;20.390;2023-06-05T00:29:19;9.77;;;3.67;;
55364;SDS011;41245;45.384;20.390;2023-06-05T00:31:44;5.18;;;4.07;;
55364;SDS011;41245;45.384;20.390;2023-06-05T00:34:12;7.38;;;3.67;;
55364;SDS011;41245;45.384;20.390;2023-06-05T00:36:38;5.60;;;3.40;;
55364;SDS011;41245;45.384;20.390;2023-06-05T00:39:05;7.78;;;3.90;;
55364;SDS011;41245;45.384;20.390;2023-06-05T00:41:31;4.13;;;3.20;;
55364;SDS011;41245;45.384;20.390;2023-06-05T00:43:57;8.07;;;3.67;;
55364;SDS011;41245;45.384;20.390;2023-06-05T00:46:23;4.75;;;3.50;;
55364;SDS011;41245;45.384;20.390;2023-06-05T00:48:49;5.28;;;3.90;;
55364;SDS011;41245;45.384;20.390;2023-06-05T00:51:15;8.38;;;4.13;;
55364;SDS011;41245;45.384;20.390;2023-06-05T00:53:41;6.57;;;4.25;;
55364;SDS011;41245;45.384;20.390;2023-06-05T00:56:09;6.65;;;4.25;;
55364;SDS011;41245;45.384;20.390;2023-06-05T00:58:36;12.60;;;4.10;;
55364;SDS011;41245;45.384;20.390;2023-06-05T01:01:01;7.40;;;5.30;;
55364;SDS011;41245;45.384;20.390;2023-06-05T01:03:30;7.40;;;4.10;;
55364;SDS011;41245;45.384;20.390;2023-06-05T01:05:58;9.32;;;6.03;;
55364;SDS011;41245;45.384;20.390;2023-06-05T01:08:29;4.35;;;3.67;;
55364;SDS011;41245;45.384;20.390;2023-06-05T01:11:04;5.05;;;3.80;;
55364;SDS011;41245;45.384;20.390;2023-06-05T01:13:36;5.00;;;4.10;;
55364;SDS011;41245;45.384;20.390;2023-06-05T01:16:08;11.95;;;4.40;;
55364;SDS011;41245;45.384;20.390;2023-06-05T01:18:36;7.07;;;4.68;;
55364;SDS011;41245;45.384;20.390;2023-06-05T01:21:10;5.65;;;4.45;;
55364;SDS011;41245;45.384;20.390;2023-06-05T01:23:41;7.25;;;5.05;;
55364;SDS011;41245;45.384;20.390;2023-06-05T01:26:09;8.07;;;4.88;;
55364;SDS011;41245;45.384;20.390;2023-06-05T01:28:40;6.57;;;5.05;;
55364;SDS011;41245;45.384;20.390;2023-06-05T01:31:10;8.73;;;5.95;;
55364;SDS011;41245;45.384;20.390;2023-06-05T01:34:00;8.30;;;4.82;;
55364;SDS011;41245;45.384;20.390;2023-06-05T01:36:32;10.57;;;5.28;;
55364;SDS011;41245;45.384;20.390;2023-06-05T01:38:58;9.27;;;4.65;;
55364;SDS011;41245;45.384;20.390;2023-06-05T01:41:26;8.48;;;4.38;;
55364;SDS011;41245;45.384;20.390;2023-06-05T01:43:52;6.75;;;4.40;;
55364;SDS011;41245;45.384;20.390;2023-06-05T01:46:20;8.02;;;4.82;;
55364;SDS011;41245;45.384;20.390;2023-06-05T01:48:47;9.65;;;4.13;;
55364;SDS011;41245;45.384;20.390;2023-06-05T01:51:13;9.60;;;4.57;;
55364;SDS011;41245;45.384;20.390;2023-06-05T01:53:39;8.13;;;4.72;;
55364;SDS011;41245;45.384;20.390;2023-06-05T01:56:05;10.45;;;6.10;;
55364;SDS011;41245;45.384;20.390;2023-06-05T01:58:33;9.10;;;5.50;;
55364;SDS011;41245;45.384;20.390;2023-06-05T02:00:59;8.57;;;6.40;;
55364;SDS011;41245;45.384;20.390;2023-06-05T02:03:24;16.50;;;9.00;;
55364;SDS011;41245;45.384;20.390;2023-06-05T02:05:50;15.60;;;9.00;;
55364;SDS011;41245;45.384;20.390;2023-06-05T02:08:16;14.27;;;10.18;;
55364;SDS011;41245;45.384;20.390;2023-06-05T02:10:47;16.50;;;11.68;;
55364;SDS011;41245;45.384;20.390;2023-06-05T02:13:17;14.20;;;9.52;;
55364;SDS011;41245;45.384;20.390;2023-06-05T02:15:49;10.80;;;7.00;;
55364;SDS011;41245;45.384;20.390;2023-06-05T02:18:21;15.02;;;6.22;;
55364;SDS011;41245;45.384;20.390;2023-06-05T02:20:52;6.20;;;4.47;;
55364;SDS011;41245;45.384;20.390;2023-06-05T02:25:45;7.43;;;5.38;;
55364;SDS011;41245;45.384;20.390;2023-06-05T02:28:11;5.22;;;3.80;;
55364;SDS011;41245;45.384;20.390;2023-06-05T02:30:37;8.43;;;4.60;;
55364;SDS011;41245;45.384;20.390;2023-06-05T02:33:03;8.88;;;5.97;;
55364;SDS011;41245;45.384;20.390;2023-06-05T02:35:29;10.00;;;5.70;;
55364;SDS011;41245;45.384;20.390;2023-06-05T02:37:54;9.95;;;5.75;;
55364;SDS011;41245;45.384;20.390;2023-06-05T02:40:21;9.75;;;5.55;;
55364;SDS011;41245;45.384;20.390;2023-06-05T02:42:47;9.80;;;5.30;;
55364;SDS011;41245;45.384;20.390;2023-06-05T02:45:13;5.50;;;4.20;;
55364;SDS011;41245;45.384;20.390;2023-06-05T02:47:38;7.63;;;5.65;;
55364;SDS011;41245;45.384;20.390;2023-06-05T02:50:05;8.32;;;5.60;;
55364;SDS011;41245;45.384;20.390;2023-06-05T02:52:32;8.07;;;5.85;;
55364;SDS011;41245;45.384;20.390;2023-06-05T02:55:00;8.75;;;5.70;;
55364;SDS011;41245;45.384;20.390;2023-06-05T02:57:27;8.65;;;5.63;;
55364;SDS011;41245;45.384;20.390;2023-06-05T02:59:53;8.93;;;5.63;;
55364;SDS011;41245;45.384;20.390;2023-06-05T03:02:20;9.45;;;5.50;;
55364;SDS011;41245;45.384;20.390;2023-06-05T03:04:47;9.35;;;5.63;;
55364;SDS011;41245;45.384;20.390;2023-06-05T03:07:18;10.88;;;5.60;;
55364;SDS011;41245;45.384;20.390;2023-06-05T03:09:44;13.13;;;5.97;;
55364;SDS011;41245;45.384;20.390;2023-06-05T03:12:10;13.75;;;6.60;;
55364;SDS011;41245;45.384;20.390;2023-06-05T03:14:36;10.00;;;5.63;;
55364;SDS011;41245;45.384;20.390;2023-06-05T03:17:02;10.30;;;5.90;;
55364;SDS011;41245;45.384;20.390;2023-06-05T03:19:28;10.93;;;5.75;;
55364;SDS011;41245;45.384;20.390;2023-06-05T03:21:55;10.40;;;6.82;;
55364;SDS011;41245;45.384;20.390;2023-06-05T03:24:21;9.35;;;6.35;;
55364;SDS011;41245;45.384;20.390;2023-06-05T03:26:49;11.07;;;6.15;;
55364;SDS011;41245;45.384;20.390;2023-06-05T03:29:16;11.85;;;6.35;;
55364;SDS011;41245;45.384;20.390;2023-06-05T03:31:42;14.20;;;6.82;;
55364;SDS011;41245;45.384;20.390;2023-06-05T03:34:08;9.43;;;5.90;;
55364;SDS011;41245;45.384;20.390;2023-06-05T03:36:34;10.07;;;6.05;;
55364;SDS011;41245;45.384;20.390;2023-06-05T03:39:03;13.10;;;7.18;;
55364;SDS011;41245;45.384;20.390;2023-06-05T03:41:29;9.35;;;6.07;;
55364;SDS011;41245;45.384;20.390;2023-06-05T03:43:55;12.30;;;5.93;;
55364;SDS011;41245;45.384;20.390;2023-06-05T03:46:22;7.68;;;5.80;;
55364;SDS011;41245;45.384;20.390;2023-06-05T03:48:49;9.38;;;5.82;;
55364;SDS011;41245;45.384;20.390;2023-06-05T03:51:15;8.70;;;5.57;;
55364;SDS011;41245;45.384;20.390;2023-06-05T03:53:44;13.82;;;5.63;;
55364;SDS011;41245;45.384;20.390;2023-06-05T03:56:10;8.55;;;5.68;;
55364;SDS011;41245;45.384;20.390;2023-06-05T03:58:40;17.30;;;5.40;;
55364;SDS011;41245;45.384;20.390;2023-06-05T04:01:06;7.38;;;4.88;;
55364;SDS011;41245;45.384;20.390;2023-06-05T04:03:32;7.32;;;4.80;;
55364;SDS011;41245;45.384;20.390;2023-06-05T04:06:02;10.07;;;4.40;;
55364;SDS011;41245;45.384;20.390;2023-06-05T04:08:29;7.82;;;4.82;;
55364;SDS011;41245;45.384;20.390;2023-06-05T04:10:54;10.90;;;4.75;;
55364;SDS011;41245;45.384;20.390;2023-06-05T04:13:20;5.22;;;4.72;;
55364;SDS011;41245;45.384;20.390;2023-06-05T04:15:47;9.32;;;4.55;;
55364;SDS011;41245;45.384;20.390;2023-06-05T04:18:14;6.38;;;4.40;;
55364;SDS011;41245;45.384;20.390;2023-06-05T04:20:40;12.20;;;4.70;;
55364;SDS011;41245;45.384;20.390;2023-06-05T04:23:05;5.80;;;4.10;;
55364;SDS011;41245;45.384;20.390;2023-06-05T04:25:31;7.60;;;4.43;;
55364;SDS011;41245;45.384;20.390;2023-06-05T04:27:57;9.35;;;3.90;;
55364;SDS011;41245;45.384;20.390;2023-06-05T04:30:23;5.40;;;3.60;;
55364;SDS011;41245;45.384;20.390;2023-06-05T04:32:50;7.80;;;4.07;;
55364;SDS011;41245;45.384;20.390;2023-06-05T04:35:22;8.05;;;4.68;;
55364;SDS011;41245;45.384;20.390;2023-06-05T04:37:48;6.38;;;4.10;;
55364;SDS011;41245;45.384;20.390;2023-06-05T04:40:14;7.63;;;4.28;;
55364;SDS011;41245;45.384;20.390;2023-06-05T04:42:41;10.77;;;3.60;;
55364;SDS011;41245;45.384;20.390;2023-06-05T04:45:07;10.15;;;3.72;;
55364;SDS011;41245;45.384;20.390;2023-06-05T04:47:33;10.43;;;4.53;;
55364;SDS011;41245;45.384;20.390;2023-06-05T04:50:00;9.27;;;4.20;;
55364;SDS011;41245;45.384;20.390;2023-06-05T04:52:28;9.10;;;4.25;;
55364;SDS011;41245;45.384;20.390;2023-06-05T04:55:01;7.97;;;4.05;;
55364;SDS011;41245;45.384;20.390;2023-06-05T04:57:27;7.10;;;3.85;;
55364;SDS011;41245;45.384;20.390;2023-06-05T04:59:54;11.70;;;4.38;;
55364;SDS011;41245;45.384;20.390;2023-06-05T05:02:21;7.15;;;4.45;;
55364;SDS011;41245;45.384;20.390;2023-06-05T05:04:48;8.60;;;3.65;;
55364;SDS011;41245;45.384;20.390;2023-06-05T05:07:14;7.32;;;3.40;;
55364;SDS011;41245;45.384;20.390;2023-06-05T05:09:44;5.88;;;3.60;;
55364;SDS011;41245;45.384;20.390;2023-06-05T05:12:10;6.95;;;3.67;;
55364;SDS011;41245;45.384;20.390;2023-06-05T05:14:36;10.20;;;4.05;;
55364;SDS011;41245;45.384;20.390;2023-06-05T05:17:02;8.45;;;4.53;;
55364;SDS011;41245;45.384;20.390;2023-06-05T05:19:29;5.47;;;3.92;;
55364;SDS011;41245;45.384;20.390;2023-06-05T05:21:55;7.38;;;3.92;;
55364;SDS011;41245;45.384;20.390;2023-06-05T05:24:21;5.47;;;3.42;;
55364;SDS011;41245;45.384;20.390;2023-06-05T05:26:47;7.20;;;3.55;;
55364;SDS011;41245;45.384;20.390;2023-06-05T05:29:13;10.35;;;3.95;;
55364;SDS011;41245;45.384;20.390;2023-06-05T05:31:39;10.73;;;4.78;;
55364;SDS011;41245;45.384;20.390;2023-06-05T05:34:05;7.78;;;4.43;;
55364;SDS011;41245;45.384;20.390;2023-06-05T05:36:31;12.18;;;4.35;;
55364;SDS011;41245;45.384;20.390;2023-06-05T05:38:58;9.45;;;4.45;;
55364;SDS011;41245;45.384;20.390;2023-06-05T05:41:24;11.52;;;4.00;;
55364;SDS011;41245;45.384;20.390;2023-06-05T05:43:51;11.23;;;5.05;;
55364;SDS011;41245;45.384;20.390;2023-06-05T05:46:17;6.70;;;4.13;;
55364;SDS011;41245;45.384;20.390;2023-06-05T05:48:43;8.73;;;3.97;;
55364;SDS011;41245;45.384;20.390;2023-06-05T05:51:08;6.65;;;4.45;;
55364;SDS011;41245;45.384;20.390;2023-06-05T05:53:34;12.45;;;4.68;;
55364;SDS011;41245;45.384;20.390;2023-06-05T05:56:01;10.40;;;4.50;;
55364;SDS011;41245;45.384;20.390;2023-06-05T05:58:27;14.10;;;5.40;;
55364;SDS011;41245;45.384;20.390;2023-06-05T06:00:53;14.27;;;5.05;;
55364;SDS011;41245;45.384;20.390;2023-06-05T06:03:19;10.65;;;4.97;;
55364;SDS011;41245;45.384;20.390;2023-06-05T06:05:45;10.13;;;4.18;;
55364;SDS011;41245;45.384;20.390;2023-06-05T06:08:11;7.05;;;4.40;;
55364;SDS011;41245;45.384;20.390;2023-06-05T06:10:37;11.90;;;5.22;;
55364;SDS011;41245;45.384;20.390;2023-06-05T06:13:03;10.48;;;4.65;;
55364;SDS011;41245;45.384;20.390;2023-06-05T06:15:29;7.75;;;3.92;;
55364;SDS011;41245;45.384;20.390;2023-06-05T06:17:56;9.02;;;4.20;;
55364;SDS011;41245;45.384;20.390;2023-06-05T06:20:22;9.73;;;4.15;;
55364;SDS011;41245;45.384;20.390;2023-06-05T06:22:48;9.35;;;4.18;;
55364;SDS011;41245;45.384;20.390;2023-06-05T06:25:14;13.23;;;4.68;;
55364;SDS011;41245;45.384;20.390;2023-06-05T06:27:41;12.95;;;5.07;;
55364;SDS011;41245;45.384;20.390;2023-06-05T06:30:08;9.38;;;3.85;;
55364;SDS011;41245;45.384;20.390;2023-06-05T06:32:35;14.82;;;4.15;;
55364;SDS011;41245;45.384;20.390;2023-06-05T06:35:01;9.05;;;4.90;;
55364;SDS011;41245;45.384;20.390;2023-06-05T06:37:26;12.95;;;4.70;;
55364;SDS011;41245;45.384;20.390;2023-06-05T06:39:53;11.13;;;5.10;;
55364;SDS011;41245;45.384;20.390;2023-06-05T06:42:19;11.73;;;3.88;;
55364;SDS011;41245;45.384;20.390;2023-06-05T06:44:44;12.05;;;4.13;;
55364;SDS011;41245;45.384;20.390;2023-06-05T06:47:10;14.35;;;4.75;;
55364;SDS011;41245;45.384;20.390;2023-06-05T06:49:36;10.77;;;4.07;;
55364;SDS011;41245;45.384;20.390;2023-06-05T06:52:02;8.50;;;3.97;;
55364;SDS011;41245;45.384;20.390;2023-06-05T06:54:27;6.82;;;3.55;;
55364;SDS011;41245;45.384;20.390;2023-06-05T06:56:55;8.10;;;3.25;;
55364;SDS011;41245;45.384;20.390;2023-06-05T06:59:21;9.35;;;3.45;;
55364;SDS011;41245;45.384;20.390;2023-06-05T07:02:04;9.77;;;4.70;;
55364;SDS011;41245;45.384;20.390;2023-06-05T07:04:44;7.38;;;3.88;;
55364;SDS011;41245;45.384;20.390;2023-06-05T07:07:11;6.05;;;4.00;;
55364;SDS011;41245;45.384;20.390;2023-06-05T07:09:39;6.10;;;3.15;;
55364;SDS011;41245;45.384;20.390;2023-06-05T07:12:07;8.13;;;2.95;;
55364;SDS011;41245;45.384;20.390;2023-06-05T07:14:34;10.48;;;3.30;;
55364;SDS011;41245;45.384;20.390;2023-06-05T07:17:00;3.90;;;3.10;;
55364;SDS011;41245;45.384;20.390;2023-06-05T07:19:35;7.35;;;3.33;;
55364;SDS011;41245;45.384;20.390;2023-06-05T07:22:02;8.82;;;3.28;;
55364;SDS011;41245;45.384;20.390;2023-06-05T07:24:31;6.07;;;3.17;;
55364;SDS011;41245;45.384;20.390;2023-06-05T07:27:00;8.87;;;4.17;;
55364;SDS011;41245;45.384;20.390;2023-06-05T07:29:28;5.50;;;3.80;;
55364;SDS011;41245;45.384;20.390;2023-06-05T07:31:55;6.05;;;4.38;;
55364;SDS011;41245;45.384;20.390;2023-06-05T07:34:22;6.45;;;5.22;;
55364;SDS011;41245;45.384;20.390;2023-06-05T07:36:49;5.28;;;3.10;;
55364;SDS011;41245;45.384;20.390;2023-06-05T07:39:16;7.30;;;4.57;;
55364;SDS011;41245;45.384;20.390;2023-06-05T07:41:44;12.70;;;5.40;;
55364;SDS011;41245;45.384;20.390;2023-06-05T07:44:10;5.18;;;3.08;;
55364;SDS011;41245;45.384;20.390;2023-06-05T07:46:39;7.47;;;3.75;;
55364;SDS011;41245;45.384;20.390;2023-06-05T07:49:05;6.40;;;3.28;;
55364;SDS011;41245;45.384;20.390;2023-06-05T07:51:31;4.88;;;3.35;;
55364;SDS011;41245;45.384;20.390;2023-06-05T07:56:34;9.80;;;6.05;;
55364;SDS011;41245;45.384;20.390;2023-06-05T07:59:02;12.70;;;9.23;;
55364;SDS011;41245;45.384;20.390;2023-06-05T08:01:32;14.18;;;8.52;;
55364;SDS011;41245;45.384;20.390;2023-06-05T08:04:02;7.75;;;5.88;;
55364;SDS011;41245;45.384;20.390;2023-06-05T08:06:28;8.18;;;3.97;;
55364;SDS011;41245;45.384;20.390;2023-06-05T08:08:55;5.13;;;3.55;;
55364;SDS011;41245;45.384;20.390;2023-06-05T08:11:21;11.90;;;4.35;;
55364;SDS011;41245;45.384;20.390;2023-06-05T08:13:46;7.20;;;4.78;;
55364;SDS011;41245;45.384;20.390;2023-06-05T08:16:12;5.20;;;3.83;;
55364;SDS011;41245;45.384;20.390;2023-06-05T08:18:40;5.80;;;3.58;;
55364;SDS011;41245;45.384;20.390;2023-06-05T08:21:06;5.13;;;3.45;;
55364;SDS011;41245;45.384;20.390;2023-06-05T08:23:32;8.75;;;3.75;;
55364;SDS011;41245;45.384;20.390;2023-06-05T08:25:58;4.53;;;3.30;;
55364;SDS011;41245;45.384;20.390;2023-06-05T08:28:23;5.22;;;3.95;;
55364;SDS011;41245;45.384;20.390;2023-06-05T08:30:49;7.20;;;3.83;;
55364;SDS011;41245;45.384;20.390;2023-06-05T08:33:17;5.43;;;3.45;;
55364;SDS011;41245;45.384;20.390;2023-06-05T08:35:44;7.15;;;4.07;;
55364;SDS011;41245;45.384;20.390;2023-06-05T08:38:10;5.97;;;3.75;;
55364;SDS011;41245;45.384;20.390;2023-06-05T08:40:36;7.50;;;3.75;;
55364;SDS011;41245;45.384;20.390;2023-06-05T08:43:04;5.72;;;3.47;;
55364;SDS011;41245;45.384;20.390;2023-06-05T08:45:33;6.95;;;3.58;;
55364;SDS011;41245;45.384;20.390;2023-06-05T08:47:59;5.20;;;2.95;;
55364;SDS011;41245;45.384;20.390;2023-06-05T08:50:29;5.15;;;3.17;;
55364;SDS011;41245;45.384;20.390;2023-06-05T08:53:00;7.00;;;3.42;;
55364;SDS011;41245;45.384;20.390;2023-06-05T08:55:27;5.57;;;3.33;;
55364;SDS011;41245;45.384;20.390;2023-06-05T08:57:54;6.95;;;3.40;;
55364;SDS011;41245;45.384;20.390;2023-06-05T09:00:20;3.78;;;3.33;;
55364;SDS011;41245;45.384;20.390;2023-06-05T09:02:47;6.18;;;3.85;;
55364;SDS011;41245;45.384;20.390;2023-06-05T09:05:13;4.03;;;3.42;;
55364;SDS011;41245;45.384;20.390;2023-06-05T09:07:40;7.57;;;4.07;;
55364;SDS011;41245;45.384;20.390;2023-06-05T09:10:06;8.40;;;4.03;;
55364;SDS011;41245;45.384;20.390;2023-06-05T09:12:52;7.38;;;4.05;;
55364;SDS011;41245;45.384;20.390;2023-06-05T09:15:25;4.85;;;3.10;;
55364;SDS011;41245;45.384;20.390;2023-06-05T09:20:47;5.38;;;3.78;;
55364;SDS011;41245;45.384;20.390;2023-06-05T09:23:23;6.93;;;3.58;;
55364;SDS011;41245;45.384;20.390;2023-06-05T09:25:50;7.82;;;4.03;;
55364;SDS011;41245;45.384;20.390;2023-06-05T09:28:16;7.32;;;3.42;;
55364;SDS011;41245;45.384;20.390;2023-06-05T09:31:03;5.80;;;3.50;;
55364;SDS011;41245;45.384;20.390;2023-06-05T09:33:32;4.22;;;3.15;;
55364;SDS011;41245;45.384;20.390;2023-06-05T09:36:11;7.72;;;3.13;;
55364;SDS011;41245;45.384;20.390;2023-06-05T09:38:39;3.80;;;3.35;;
55364;SDS011;41245;45.384;20.390;2023-06-05T09:41:07;12.15;;;3.35;;
55364;SDS011;41245;45.384;20.390;2023-06-05T09:43:34;5.68;;;3.88;;
55364;SDS011;41245;45.384;20.390;2023-06-05T09:46:11;5.88;;;3.03;;
55364;SDS011;41245;45.384;20.390;2023-06-05T09:48:39;6.82;;;3.03;;
55364;SDS011;41245;45.384;20.390;2023-06-05T09:51:12;8.85;;;3.40;;
55364;SDS011;41245;45.384;20.390;2023-06-05T09:53:43;4.60;;;3.05;;
55364;SDS011;41245;45.384;20.390;2023-06-05T09:56:11;3.40;;;2.80;;
55364;SDS011;41245;45.384;20.390;2023-06-05T09:58:40;9.27;;;2.83;;
55364;SDS011;41245;45.384;20.390;2023-06-05T10:01:16;4.30;;;3.28;;
55364;SDS011;41245;45.384;20.390;2023-06-05T10:03:56;6.63;;;3.20;;
55364;SDS011;41245;45.384;20.390;2023-06-05T10:06:23;6.05;;;3.70;;
55364;SDS011;41245;45.384;20.390;2023-06-05T10:08:52;7.22;;;3.35;;
55364;SDS011;41245;45.384;20.390;2023-06-05T10:11:20;5.63;;;3.15;;
55364;SDS011;41245;45.384;20.390;2023-06-05T10:13:47;6.13;;;3.28;;
55364;SDS011;41245;45.384;20.390;2023-06-05T10:16:14;5.93;;;3.50;;
55364;SDS011;41245;45.384;20.390;2023-06-05T10:18:46;4.53;;;3.28;;
55364;SDS011;41245;45.384;20.390;2023-06-05T10:21:16;5.32;;;4.43;;
55364;SDS011;41245;45.384;20.390;2023-06-05T10:24:01;6.88;;;3.60;;
55364;SDS011;41245;45.384;20.390;2023-06-05T10:32:16;5.43;;;3.28;;
55364;SDS011;41245;45.384;20.390;2023-06-05T10:38:20;7.40;;;3.67;;
55364;SDS011;41245;45.384;20.390;2023-06-05T10:40:50;9.13;;;4.15;;
55364;SDS011;41245;45.384;20.390;2023-06-05T10:43:27;4.22;;;3.33;;
55364;SDS011;41245;45.384;20.390;2023-06-05T10:45:55;14.73;;;3.53;;
55364;SDS011;41245;45.384;20.390;2023-06-05T10:48:50;7.95;;;3.17;;
55364;SDS011;41245;45.384;20.390;2023-06-05T10:51:36;3.95;;;3.35;;
55364;SDS011;41245;45.384;20.390;2023-06-05T10:59:22;5.68;;;3.22;;
55364;SDS011;41245;45.384;20.390;2023-06-05T11:07:20;13.27;;;4.30;;
55364;SDS011;41245;45.384;20.390;2023-06-05T11:15:08;5.45;;;3.38;;
55364;SDS011;41245;45.384;20.390;2023-06-05T11:17:36;11.63;;;4.22;;
55364;SDS011;41245;45.384;20.390;2023-06-05T11:20:04;3.47;;;2.97;;
55364;SDS011;41245;45.384;20.390;2023-06-05T11:22:31;5.78;;;3.33;;
55364;SDS011;41245;45.384;20.390;2023-06-05T11:27:46;5.53;;;3.95;;
55364;SDS011;41245;45.384;20.390;2023-06-05T11:30:14;3.42;;;3.13;;
55364;SDS011;41245;45.384;20.390;2023-06-05T11:32:41;9.43;;;3.78;;
55364;SDS011;41245;45.384;20.390;2023-06-05T11:35:08;11.02;;;4.30;;
55364;SDS011;41245;45.384;20.390;2023-06-05T11:37:35;5.63;;;3.90;;
55364;SDS011;41245;45.384;20.390;2023-06-05T11:40:02;6.20;;;3.45;;
55364;SDS011;41245;45.384;20.390;2023-06-05T11:42:35;9.13;;;3.85;;
55364;SDS011;41245;45.384;20.390;2023-06-05T11:45:01;4.80;;;3.47;;
55364;SDS011;41245;45.384;20.390;2023-06-05T11:47:28;7.28;;;3.22;;
55364;SDS011;41245;45.384;20.390;2023-06-05T11:50:15;6.30;;;3.25;;
55364;SDS011;41245;45.384;20.390;2023-06-05T11:52:41;3.72;;;3.28;;
55364;SDS011;41245;45.384;20.390;2023-06-05T11:55:14;15.57;;;5.45;;
55364;SDS011;41245;45.384;20.390;2023-06-05T11:57:44;7.57;;;4.38;;
55364;SDS011;41245;45.384;20.390;2023-06-05T12:00:14;5.10;;;3.67;;
55364;SDS011;41245;45.384;20.390;2023-06-05T12:02:42;6.88;;;4.15;;
55364;SDS011;41245;45.384;20.390;2023-06-05T12:05:08;6.50;;;3.47;;
55364;SDS011;41245;45.384;20.390;2023-06-05T12:07:35;14.43;;;4.47;;
55364;SDS011;41245;45.384;20.390;2023-06-05T12:10:06;6.60;;;3.92;;
55364;SDS011;41245;45.384;20.390;2023-06-05T12:12:33;6.82;;;3.83;;
55364;SDS011;41245;45.384;20.390;2023-06-05T12:15:15;13.00;;;3.78;;
55364;SDS011;41245;45.384;20.390;2023-06-05T12:17:52;10.63;;;4.38;;
55364;SDS011;41245;45.384;20.390;2023-06-05T12:20:19;4.18;;;3.05;;
55364;SDS011;41245;45.384;20.390;2023-06-05T12:22:46;3.55;;;3.22;;
55364;SDS011;41245;45.384;20.390;2023-06-05T12:25:16;9.02;;;3.78;;
55364;SDS011;41245;45.384;20.390;2023-06-05T12:27:47;7.28;;;3.25;;
55364;SDS011;41245;45.384;20.390;2023-06-05T12:30:14;11.18;;;4.70;;
55364;SDS011;41245;45.384;20.390;2023-06-05T12:32:44;13.00;;;3.50;;
55364;SDS011;41245;45.384;20.390;2023-06-05T12:35:22;8.20;;;3.55;;
55364;SDS011;41245;45.384;20.390;2023-06-05T12:37:49;5.75;;;3.75;;
55364;SDS011;41245;45.384;20.390;2023-06-05T12:40:15;9.55;;;3.65;;
55364;SDS011;41245;45.384;20.390;2023-06-05T12:45:21;6.35;;;3.63;;
55364;SDS011;41245;45.384;20.390;2023-06-05T12:47:47;7.95;;;3.60;;
55364;SDS011;41245;45.384;20.390;2023-06-05T12:50:13;10.05;;;3.45;;
55364;SDS011;41245;45.384;20.390;2023-06-05T12:52:39;7.35;;;4.95;;
55364;SDS011;41245;45.384;20.390;2023-06-05T12:55:06;6.88;;;4.03;;
55364;SDS011;41245;45.384;20.390;2023-06-05T12:57:32;7.78;;;3.45;;
55364;SDS011;41245;45.384;20.390;2023-06-05T12:59:59;14.90;;;6.78;;
55364;SDS011;41245;45.384;20.390;2023-06-05T13:02:36;6.88;;;4.90;;
55364;SDS011;41245;45.384;20.390;2023-06-05T13:05:02;7.05;;;4.88;;
55364;SDS011;41245;45.384;20.390;2023-06-05T13:07:29;11.55;;;4.35;;
55364;SDS011;41245;45.384;20.390;2023-06-05T13:09:56;13.30;;;5.28;;
55364;SDS011;41245;45.384;20.390;2023-06-05T13:12:22;14.52;;;4.43;;
55364;SDS011;41245;45.384;20.390;2023-06-05T13:14:48;7.50;;;4.45;;
55364;SDS011;41245;45.384;20.390;2023-06-05T13:17:14;17.85;;;4.30;;
55364;SDS011;41245;45.384;20.390;2023-06-05T13:19:40;8.40;;;4.10;;
55364;SDS011;41245;45.384;20.390;2023-06-05T13:22:05;6.18;;;3.63;;
55364;SDS011;41245;45.384;20.390;2023-06-05T13:24:31;6.78;;;3.70;;
55364;SDS011;41245;45.384;20.390;2023-06-05T13:26:57;8.45;;;3.78;;
55364;SDS011;41245;45.384;20.390;2023-06-05T13:29:23;7.88;;;4.22;;
55364;SDS011;41245;45.384;20.390;2023-06-05T13:31:48;9.25;;;3.90;;
55364;SDS011;41245;45.384;20.390;2023-06-05T13:34:14;10.35;;;3.42;;
55364;SDS011;41245;45.384;20.390;2023-06-05T13:36:40;5.85;;;3.97;;
55364;SDS011;41245;45.384;20.390;2023-06-05T13:39:06;4.85;;;3.55;;
55364;SDS011;41245;45.384;20.390;2023-06-05T13:41:32;9.75;;;3.70;;
55364;SDS011;41245;45.384;20.390;2023-06-05T13:43:58;6.80;;;4.07;;
55364;SDS011;41245;45.384;20.390;2023-06-05T13:46:24;12.50;;;6.32;;
55364;SDS011;41245;45.384;20.390;2023-06-05T13:48:50;8.88;;;4.15;;
55364;SDS011;41245;45.384;20.390;2023-06-05T13:51:17;8.48;;;4.50;;
55364;SDS011;41245;45.384;20.390;2023-06-05T13:53:44;6.35;;;3.97;;
55364;SDS011;41245;45.384;20.390;2023-06-05T13:56:10;17.98;;;4.22;;
55364;SDS011;41245;45.384;20.390;2023-06-05T13:58:35;13.25;;;4.45;;
55364;SDS011;41245;45.384;20.390;2023-06-05T14:01:01;6.35;;;3.83;;
55364;SDS011;41245;45.384;20.390;2023-06-05T14:03:27;11.77;;;3.50;;
55364;SDS011;41245;45.384;20.390;2023-06-05T14:05:53;5.47;;;3.83;;
55364;SDS011;41245;45.384;20.390;2023-06-05T14:08:19;5.93;;;4.05;;
55364;SDS011;41245;45.384;20.390;2023-06-05T14:10:45;6.68;;;4.30;;
55364;SDS011;41245;45.384;20.390;2023-06-05T14:13:11;10.98;;;4.82;;
55364;SDS011;41245;45.384;20.390;2023-06-05T14:15:39;10.02;;;3.75;;
55364;SDS011;41245;45.384;20.390;2023-06-05T14:18:05;5.88;;;3.47;;
55364;SDS011;41245;45.384;20.390;2023-06-05T14:20:31;5.07;;;3.88;;
55364;SDS011;41245;45.384;20.390;2023-06-05T14:22:58;8.52;;;4.18;;
55364;SDS011;41245;45.384;20.390;2023-06-05T14:25:25;4.72;;;3.95;;
55364;SDS011;41245;45.384;20.390;2023-06-05T14:27:54;9.27;;;4.53;;
55364;SDS011;41245;45.384;20.390;2023-06-05T14:30:23;7.63;;;4.15;;
55364;SDS011;41245;45.384;20.390;2023-06-05T14:32:50;8.18;;;4.05;;
55364;SDS011;41245;45.384;20.390;2023-06-05T14:35:16;6.80;;;3.97;;
55364;SDS011;41245;45.384;20.390;2023-06-05T14:37:44;4.72;;;3.50;;
55364;SDS011;41245;45.384;20.390;2023-06-05T14:40:10;12.23;;;4.05;;
55364;SDS011;41245;45.384;20.390;2023-06-05T14:42:37;10.13;;;4.22;;
55364;SDS011;41245;45.384;20.390;2023-06-05T14:45:03;11.20;;;4.80;;
55364;SDS011;41245;45.384;20.390;2023-06-05T14:47:29;10.98;;;3.97;;
55364;SDS011;41245;45.384;20.390;2023-06-05T14:49:55;3.67;;;3.30;;
55364;SDS011;41245;45.384;20.390;2023-06-05T14:52:21;5.97;;;4.35;;
55364;SDS011;41245;45.384;20.390;2023-06-05T14:54:47;6.93;;;4.20;;
55364;SDS011;41245;45.384;20.390;2023-06-05T14:57:12;7.43;;;3.95;;
55364;SDS011;41245;45.384;20.390;2023-06-05T14:59:38;5.40;;;3.42;;
55364;SDS011;41245;45.384;20.390;2023-06-05T15:02:05;7.28;;;4.63;;
55364;SDS011;41245;45.384;20.390;2023-06-05T15:04:31;7.35;;;4.85;;
55364;SDS011;41245;45.384;20.390;2023-06-05T15:06:58;8.80;;;4.07;;
55364;SDS011;41245;45.384;20.390;2023-06-05T15:09:24;9.50;;;4.88;;
55364;SDS011;41245;45.384;20.390;2023-06-05T15:11:50;8.15;;;4.95;;